sensor_id;sensor_type;location;lat;lon;timestamp;pressure;altitude;pressure_sealevel;temperature;humidity
42247;BME280;27913;42.722;23.268;2022-12-10T00:01:14;94302.31;;;8.15;94.33
42247;BME280;27913;42.722;23.268;2022-12-10T00:03:41;94370.44;;;8.59;94.11
42247;BME280;27913;42.722;23.268;2022-12-10T00:06:11;94303.19;;;8.22;94.79
42247;BME280;27913;42.722;23.268;2022-12-10T00:08:37;94334.81;;;8.43;94.82
42247;BME280;27913;42.722;23.268;2022-12-10T00:11:04;94371.47;;;8.65;94.55
42247;BME280;27913;42.722;23.268;2022-12-10T00:13:30;94369.16;;;8.55;94.82
42247;BME280;27913;42.722;23.268;2022-12-10T00:15:59;94381.09;;;8.57;94.63
42247;BME280;27913;42.722;23.268;2022-12-10T00:18:25;94306.34;;;8.11;94.88
42247;BME280;27913;42.722;23.268;2022-12-10T00:20:50;94351.16;;;8.45;95.01
42247;BME280;27913;42.722;23.268;2022-12-10T00:23:15;94373.84;;;8.60;94.96
42247;BME280;27913;42.722;23.268;2022-12-10T00:25:41;94357.69;;;8.56;95.13
42247;BME280;27913;42.722;23.268;2022-12-10T00:28:06;94274.25;;;8.02;95.10
42247;BME280;27913;42.722;23.268;2022-12-10T00:30:33;94293.31;;;8.18;95.20
42247;BME280;27913;42.722;23.268;2022-12-10T00:32:58;94358.75;;;8.62;94.94
42247;BME280;27913;42.722;23.268;2022-12-10T00:35:24;94361.81;;;8.65;94.93
42247;BME280;27913;42.722;23.268;2022-12-10T00:37:49;94363.84;;;8.70;94.57
42247;BME280;27913;42.722;23.268;2022-12-10T00:40:15;94347.03;;;8.57;94.48
42247;BME280;27913;42.722;23.268;2022-12-10T00:42:40;94373.53;;;8.69;94.52
42247;BME280;27913;42.722;23.268;2022-12-10T00:45:06;94366.13;;;8.73;94.60
42247;BME280;27913;42.722;23.268;2022-12-10T00:47:31;94378.22;;;8.74;94.35
42247;BME280;27913;42.722;23.268;2022-12-10T00:49:57;94379.63;;;8.77;94.10
42247;BME280;27913;42.722;23.268;2022-12-10T00:52:22;94366.91;;;8.74;94.01
42247;BME280;27913;42.722;23.268;2022-12-10T00:54:48;94369.09;;;8.70;94.63
42247;BME280;27913;42.722;23.268;2022-12-10T00:57:13;94287.91;;;8.26;94.84
42247;BME280;27913;42.722;23.268;2022-12-10T00:59:39;94349.88;;;8.63;94.76
42247;BME280;27913;42.722;23.268;2022-12-10T01:04:40;94168.47;;;7.46;94.33
42247;BME280;27913;42.722;23.268;2022-12-10T01:07:05;94255.72;;;8.04;93.72
42247;BME280;27913;42.722;23.268;2022-12-10T01:09:31;94374.63;;;8.82;94.27
42247;BME280;27913;42.722;23.268;2022-12-10T01:12:01;94211.84;;;7.84;94.69
42247;BME280;27913;42.722;23.268;2022-12-10T01:14:30;94359.84;;;8.74;95.48
42247;BME280;27913;42.722;23.268;2022-12-10T01:16:58;94229.47;;;7.97;95.69
42247;BME280;27913;42.722;23.268;2022-12-10T01:19:24;94298.38;;;8.48;96.26
42247;BME280;27913;42.722;23.268;2022-12-10T01:21:54;94352.47;;;8.85;96.10
42247;BME280;27913;42.722;23.268;2022-12-10T01:24:21;94264.16;;;8.28;95.04
42247;BME280;27913;42.722;23.268;2022-12-10T01:26:47;94356.53;;;8.87;95.34
42247;BME280;27913;42.722;23.268;2022-12-10T01:29:12;94279.13;;;8.34;95.84
42247;BME280;27913;42.722;23.268;2022-12-10T01:31:38;94181.94;;;7.71;95.44
42247;BME280;27913;42.722;23.268;2022-12-10T01:34:05;94351.22;;;8.80;95.65
42247;BME280;27913;42.722;23.268;2022-12-10T01:36:33;94309.34;;;8.58;95.41
42247;BME280;27913;42.722;23.268;2022-12-10T01:39:00;94241.50;;;8.13;95.92
42247;BME280;27913;42.722;23.268;2022-12-10T01:41:29;94345.00;;;8.81;96.16
42247;BME280;27913;42.722;23.268;2022-12-10T01:46:35;94364.41;;;8.87;95.81
42247;BME280;27913;42.722;23.268;2022-12-10T01:49:04;94359.94;;;8.88;96.00
42247;BME280;27913;42.722;23.268;2022-12-10T01:51:32;94356.53;;;8.87;96.15
42247;BME280;27913;42.722;23.268;2022-12-10T01:53:58;94319.63;;;8.60;96.20
42247;BME280;27913;42.722;23.268;2022-12-10T01:56:24;94346.56;;;8.76;96.90
42247;BME280;27913;42.722;23.268;2022-12-10T01:58:53;94338.09;;;8.80;97.64
42247;BME280;27913;42.722;23.268;2022-12-10T02:09:55;94302.47;;;8.57;97.95
42247;BME280;27913;42.722;23.268;2022-12-10T02:15:01;94294.81;;;8.56;98.75
42247;BME280;27913;42.722;23.268;2022-12-10T02:17:58;94327.44;;;8.82;98.79
42247;BME280;27913;42.722;23.268;2022-12-10T02:20:41;94295.03;;;8.61;99.54
42247;BME280;27913;42.722;23.268;2022-12-10T02:25:59;94208.66;;;8.17;99.41
42247;BME280;27913;42.722;23.268;2022-12-10T02:31:16;94328.88;;;8.85;99.83
42247;BME280;27913;42.722;23.268;2022-12-10T02:33:47;94309.69;;;8.84;99.72
42247;BME280;27913;42.722;23.268;2022-12-10T02:36:14;94309.69;;;8.84;99.72
42247;BME280;27913;42.722;23.268;2022-12-10T02:38:43;94261.69;;;8.48;99.99
42247;BME280;27913;42.722;23.268;2022-12-10T02:41:16;94204.63;;;8.15;100.00
42247;BME280;27913;42.722;23.268;2022-12-10T02:43:45;94230.53;;;8.31;100.00
42247;BME280;27913;42.722;23.268;2022-12-10T02:46:11;94310.72;;;8.83;100.00
42247;BME280;27913;42.722;23.268;2022-12-10T02:48:38;94170.00;;;7.91;99.96
42247;BME280;27913;42.722;23.268;2022-12-10T02:51:05;94225.72;;;8.35;99.94
42247;BME280;27913;42.722;23.268;2022-12-10T02:53:31;94302.44;;;8.86;99.97
42247;BME280;27913;42.722;23.268;2022-12-10T02:56:16;94098.06;;;7.51;99.71
42247;BME280;27913;42.722;23.268;2022-12-10T02:59:16;94276.69;;;8.61;100.00
42247;BME280;27913;42.722;23.268;2022-12-10T03:07:14;94308.91;;;8.84;100.00
42247;BME280;27913;42.722;23.268;2022-12-10T03:09:47;94220.84;;;8.32;100.00
42247;BME280;27913;42.722;23.268;2022-12-10T03:12:28;94252.13;;;8.62;100.00
42247;BME280;27913;42.722;23.268;2022-12-10T03:14:59;94137.75;;;7.83;100.00
42247;BME280;27913;42.722;23.268;2022-12-10T03:17:28;94297.00;;;8.88;100.00
42247;BME280;27913;42.722;23.268;2022-12-10T03:19:55;94217.88;;;8.42;100.00
42247;BME280;27913;42.722;23.268;2022-12-10T03:22:23;94246.47;;;8.65;100.00
42247;BME280;27913;42.722;23.268;2022-12-10T03:24:48;94170.00;;;8.19;100.00
42247;BME280;27913;42.722;23.268;2022-12-10T03:27:15;94202.97;;;8.42;100.00
42247;BME280;27913;42.722;23.268;2022-12-10T03:29:46;94207.22;;;8.43;100.00
42247;BME280;27913;42.722;23.268;2022-12-10T03:32:13;94253.03;;;8.83;100.00
42247;BME280;27913;42.722;23.268;2022-12-10T03:34:40;94173.66;;;8.25;100.00
42247;BME280;27913;42.722;23.268;2022-12-10T03:37:06;94210.03;;;8.42;100.00
42247;BME280;27913;42.722;23.268;2022-12-10T03:39:31;94263.91;;;8.80;100.00
42247;BME280;27913;42.722;23.268;2022-12-10T03:41:57;94258.25;;;8.76;100.00
42247;BME280;27913;42.722;23.268;2022-12-10T03:44:31;94250.63;;;8.88;100.00
42247;BME280;27913;42.722;23.268;2022-12-10T03:46:57;94273.06;;;8.98;100.00
42247;BME280;27913;42.722;23.268;2022-12-10T03:49:23;94180.22;;;8.43;100.00
42247;BME280;27913;42.722;23.268;2022-12-10T03:51:49;94244.75;;;8.86;100.00
42247;BME280;27913;42.722;23.268;2022-12-10T03:54:15;94187.69;;;8.46;100.00
42247;BME280;27913;42.722;23.268;2022-12-10T03:56:40;94268.81;;;8.97;100.00
42247;BME280;27913;42.722;23.268;2022-12-10T03:59:06;94274.41;;;8.87;100.00
42247;BME280;27913;42.722;23.268;2022-12-10T04:01:31;94177.84;;;8.19;100.00
42247;BME280;27913;42.722;23.268;2022-12-10T04:03:56;94132.81;;;7.95;100.00
42247;BME280;27913;42.722;23.268;2022-12-10T04:06:22;94277.66;;;8.89;100.00
42247;BME280;27913;42.722;23.268;2022-12-10T04:08:47;94187.50;;;8.19;100.00
42247;BME280;27913;42.722;23.268;2022-12-10T04:11:14;94238.31;;;8.53;100.00
42247;BME280;27913;42.722;23.268;2022-12-10T04:13:41;94281.59;;;8.71;100.00
42247;BME280;27913;42.722;23.268;2022-12-10T04:16:25;94243.88;;;8.43;100.00
42247;BME280;27913;42.722;23.268;2022-12-10T04:18:55;94218.47;;;8.37;100.00
42247;BME280;27913;42.722;23.268;2022-12-10T04:21:21;94259.25;;;8.46;100.00
42247;BME280;27913;42.722;23.268;2022-12-10T04:24:07;94297.72;;;8.68;100.00
42247;BME280;27913;42.722;23.268;2022-12-10T04:26:52;94263.16;;;8.57;100.00
42247;BME280;27913;42.722;23.268;2022-12-10T04:29:29;94262.06;;;8.80;100.00
42247;BME280;27913;42.722;23.268;2022-12-10T04:31:55;94288.53;;;8.86;100.00
42247;BME280;27913;42.722;23.268;2022-12-10T04:34:21;94247.56;;;8.78;100.00
42247;BME280;27913;42.722;23.268;2022-12-10T04:36:47;94217.22;;;8.62;100.00
42247;BME280;27913;42.722;23.268;2022-12-10T04:39:13;94219.25;;;8.66;100.00
42247;BME280;27913;42.722;23.268;2022-12-10T04:41:44;94191.81;;;8.62;100.00
42247;BME280;27913;42.722;23.268;2022-12-10T04:44:10;94281.97;;;9.10;100.00
42247;BME280;27913;42.722;23.268;2022-12-10T04:46:36;94205.56;;;8.64;100.00
42247;BME280;27913;42.722;23.268;2022-12-10T04:49:03;94216.09;;;8.78;100.00
42247;BME280;27913;42.722;23.268;2022-12-10T04:51:29;94256.97;;;9.08;100.00
42247;BME280;27913;42.722;23.268;2022-12-10T04:53:55;94265.25;;;9.11;100.00
42247;BME280;27913;42.722;23.268;2022-12-10T04:56:20;94292.69;;;9.15;100.00
42247;BME280;27913;42.722;23.268;2022-12-10T04:58:46;94281.00;;;9.11;100.00
42247;BME280;27913;42.722;23.268;2022-12-10T05:01:11;94278.38;;;9.18;100.00
42247;BME280;27913;42.722;23.268;2022-12-10T05:03:38;94272.13;;;9.19;100.00
42247;BME280;27913;42.722;23.268;2022-12-10T05:06:05;94224.59;;;8.87;100.00
42247;BME280;27913;42.722;23.268;2022-12-10T05:08:33;94110.53;;;8.13;100.00
42247;BME280;27913;42.722;23.268;2022-12-10T05:11:14;94274.53;;;9.14;100.00
42247;BME280;27913;42.722;23.268;2022-12-10T05:13:40;94266.84;;;9.12;100.00
42247;BME280;27913;42.722;23.268;2022-12-10T05:16:08;94260.59;;;9.06;100.00
42247;BME280;27913;42.722;23.268;2022-12-10T05:18:35;94230.47;;;8.89;100.00
42247;BME280;27913;42.722;23.268;2022-12-10T05:21:04;94270.28;;;9.13;100.00
42247;BME280;27913;42.722;23.268;2022-12-10T05:23:31;94164.53;;;8.50;100.00
42247;BME280;27913;42.722;23.268;2022-12-10T05:26:03;94270.50;;;9.11;100.00
42247;BME280;27913;42.722;23.268;2022-12-10T05:28:31;94268.84;;;9.10;100.00
42247;BME280;27913;42.722;23.268;2022-12-10T05:30:57;94196.44;;;8.60;100.00
42247;BME280;27913;42.722;23.268;2022-12-10T05:33:23;94270.06;;;9.01;100.00
42247;BME280;27913;42.722;23.268;2022-12-10T05:36:00;94271.03;;;9.00;100.00
42247;BME280;27913;42.722;23.268;2022-12-10T05:38:28;94219.09;;;8.68;100.00
42247;BME280;27913;42.722;23.268;2022-12-10T05:40:54;94274.47;;;9.00;100.00
42247;BME280;27913;42.722;23.268;2022-12-10T05:43:20;94280.75;;;8.99;100.00
42247;BME280;27913;42.722;23.268;2022-12-10T05:45:46;94228.56;;;8.69;100.00
42247;BME280;27913;42.722;23.268;2022-12-10T05:48:14;94278.91;;;9.00;100.00
42247;BME280;27913;42.722;23.268;2022-12-10T05:50:40;94278.31;;;8.98;100.00
42247;BME280;27913;42.722;23.268;2022-12-10T05:53:05;94280.75;;;8.99;100.00
42247;BME280;27913;42.722;23.268;2022-12-10T05:55:31;94214.59;;;8.62;100.00
42247;BME280;27913;42.722;23.268;2022-12-10T05:58:00;94250.19;;;8.85;100.00
42247;BME280;27913;42.722;23.268;2022-12-10T06:00:27;94283.78;;;9.03;100.00
42247;BME280;27913;42.722;23.268;2022-12-10T06:02:53;94286.41;;;9.03;100.00
42247;BME280;27913;42.722;23.268;2022-12-10T06:05:19;94249.59;;;8.82;100.00
42247;BME280;27913;42.722;23.268;2022-12-10T06:07:44;94291.28;;;9.13;100.00
42247;BME280;27913;42.722;23.268;2022-12-10T06:10:10;94250.81;;;8.87;100.00
42247;BME280;27913;42.722;23.268;2022-12-10T06:12:36;94230.25;;;8.84;100.00
42247;BME280;27913;42.722;23.268;2022-12-10T06:15:02;94206.00;;;8.75;100.00
42247;BME280;27913;42.722;23.268;2022-12-10T06:17:28;94209.03;;;8.78;100.00
42247;BME280;27913;42.722;23.268;2022-12-10T06:19:53;94188.84;;;8.72;100.00
42247;BME280;27913;42.722;23.268;2022-12-10T06:22:19;94279.44;;;9.30;100.00
42247;BME280;27913;42.722;23.268;2022-12-10T06:24:44;94131.81;;;8.39;100.00
42247;BME280;27913;42.722;23.268;2022-12-10T06:27:09;94272.00;;;9.34;100.00
42247;BME280;27913;42.722;23.268;2022-12-10T06:29:35;94264.53;;;9.38;100.00
42247;BME280;27913;42.722;23.268;2022-12-10T06:32:00;94265.09;;;9.33;100.00
42247;BME280;27913;42.722;23.268;2022-12-10T06:34:26;94265.94;;;9.34;100.00
42247;BME280;27913;42.722;23.268;2022-12-10T06:36:51;94189.31;;;8.89;100.00
42247;BME280;27913;42.722;23.268;2022-12-10T06:39:17;94268.75;;;9.32;100.00
42247;BME280;27913;42.722;23.268;2022-12-10T06:41:42;94151.03;;;8.53;100.00
42247;BME280;27913;42.722;23.268;2022-12-10T06:44:10;94281.47;;;9.35;100.00
42247;BME280;27913;42.722;23.268;2022-12-10T06:46:36;94235.13;;;9.00;100.00
42247;BME280;27913;42.722;23.268;2022-12-10T06:49:02;94285.94;;;9.35;100.00
42247;BME280;27913;42.722;23.268;2022-12-10T06:51:28;94209.72;;;8.94;100.00
42247;BME280;27913;42.722;23.268;2022-12-10T06:53:54;94245.66;;;9.14;100.00
42247;BME280;27913;42.722;23.268;2022-12-10T06:56:20;94080.69;;;8.07;100.00
42247;BME280;27913;42.722;23.268;2022-12-10T06:58:47;94182.63;;;8.80;100.00
42247;BME280;27913;42.722;23.268;2022-12-10T07:01:15;94271.00;;;9.42;100.00
42247;BME280;27913;42.722;23.268;2022-12-10T07:03:41;94291.25;;;9.62;100.00
42247;BME280;27913;42.722;23.268;2022-12-10T07:06:08;94228.56;;;9.25;100.00
42247;BME280;27913;42.722;23.268;2022-12-10T07:08:35;94252.63;;;9.42;100.00
42247;BME280;27913;42.722;23.268;2022-12-10T07:11:08;94295.31;;;9.71;100.00
42247;BME280;27913;42.722;23.268;2022-12-10T07:13:35;94304.78;;;9.72;100.00
42247;BME280;27913;42.722;23.268;2022-12-10T07:16:01;94252.03;;;9.47;100.00
42247;BME280;27913;42.722;23.268;2022-12-10T07:18:27;94303.19;;;9.78;100.00
42247;BME280;27913;42.722;23.268;2022-12-10T07:20:53;94286.41;;;9.72;100.00
42247;BME280;27913;42.722;23.268;2022-12-10T07:23:19;94273.50;;;9.71;100.00
42247;BME280;27913;42.722;23.268;2022-12-10T07:25:45;94105.56;;;8.67;100.00
42247;BME280;27913;42.722;23.268;2022-12-10T07:28:11;94209.22;;;9.26;100.00
42247;BME280;27913;42.722;23.268;2022-12-10T07:30:36;94198.09;;;9.17;100.00
42247;BME280;27913;42.722;23.268;2022-12-10T07:33:02;94266.44;;;9.71;100.00
42247;BME280;27913;42.722;23.268;2022-12-10T07:35:27;94186.38;;;9.20;100.00
42247;BME280;27913;42.722;23.268;2022-12-10T07:37:53;94271.28;;;9.74;100.00
42247;BME280;27913;42.722;23.268;2022-12-10T07:40:18;94226.22;;;9.50;100.00
42247;BME280;27913;42.722;23.268;2022-12-10T07:42:44;94165.38;;;9.20;100.00
42247;BME280;27913;42.722;23.268;2022-12-10T07:45:10;94130.03;;;8.95;100.00
42247;BME280;27913;42.722;23.268;2022-12-10T07:47:37;94185.81;;;9.31;100.00
42247;BME280;27913;42.722;23.268;2022-12-10T07:50:02;94267.06;;;9.94;100.00
42247;BME280;27913;42.722;23.268;2022-12-10T07:52:28;94226.44;;;9.69;100.00
42247;BME280;27913;42.722;23.268;2022-12-10T07:54:53;94269.28;;;10.03;100.00
42247;BME280;27913;42.722;23.268;2022-12-10T07:57:19;94262.63;;;10.08;100.00
42247;BME280;27913;42.722;23.268;2022-12-10T07:59:44;94065.06;;;8.97;100.00
42247;BME280;27913;42.722;23.268;2022-12-10T08:02:10;94192.72;;;9.66;100.00
42247;BME280;27913;42.722;23.268;2022-12-10T08:04:35;94142.19;;;9.37;100.00
42247;BME280;27913;42.722;23.268;2022-12-10T08:07:02;94238.16;;;10.07;100.00
42247;BME280;27913;42.722;23.268;2022-12-10T08:09:28;94216.16;;;10.01;100.00
42247;BME280;27913;42.722;23.268;2022-12-10T08:11:53;94219.97;;;10.06;100.00
42247;BME280;27913;42.722;23.268;2022-12-10T08:14:19;94188.06;;;9.95;100.00
42247;BME280;27913;42.722;23.268;2022-12-10T08:16:44;94224.81;;;10.29;100.00
42247;BME280;27913;42.722;23.268;2022-12-10T08:19:10;94093.75;;;9.46;100.00
42247;BME280;27913;42.722;23.268;2022-12-10T08:21:35;94245.44;;;10.32;100.00
42247;BME280;27913;42.722;23.268;2022-12-10T08:24:01;94247.03;;;10.33;100.00
42247;BME280;27913;42.722;23.268;2022-12-10T08:26:29;94245.00;;;10.35;100.00
42247;BME280;27913;42.722;23.268;2022-12-10T08:28:55;94228.63;;;10.33;100.00
42247;BME280;27913;42.722;23.268;2022-12-10T08:31:22;94188.47;;;9.99;100.00
42247;BME280;27913;42.722;23.268;2022-12-10T08:33:49;94079.00;;;9.25;100.00
42247;BME280;27913;42.722;23.268;2022-12-10T08:36:16;94195.72;;;9.97;100.00
42247;BME280;27913;42.722;23.268;2022-12-10T08:38:43;94133.31;;;9.65;100.00
42247;BME280;27913;42.722;23.268;2022-12-10T08:41:14;94179.38;;;9.81;100.00
42247;BME280;27913;42.722;23.268;2022-12-10T08:43:40;94087.69;;;9.32;100.00
42247;BME280;27913;42.722;23.268;2022-12-10T08:46:06;94130.09;;;9.56;100.00
42247;BME280;27913;42.722;23.268;2022-12-10T08:48:33;94241.38;;;10.23;100.00
42247;BME280;27913;42.722;23.268;2022-12-10T08:50:58;94138.19;;;9.68;100.00
42247;BME280;27913;42.722;23.268;2022-12-10T08:53:24;94233.91;;;10.20;100.00
42247;BME280;27913;42.722;23.268;2022-12-10T08:55:53;94223.41;;;10.13;100.00
42247;BME280;27913;42.722;23.268;2022-12-10T08:58:19;94177.78;;;9.80;100.00
42247;BME280;27913;42.722;23.268;2022-12-10T09:00:45;93995.66;;;8.73;100.00
42247;BME280;27913;42.722;23.268;2022-12-10T09:03:11;94157.16;;;9.84;100.00
42247;BME280;27913;42.722;23.268;2022-12-10T09:05:37;94195.91;;;10.15;100.00
42247;BME280;27913;42.722;23.268;2022-12-10T09:08:02;94143.63;;;9.87;100.00
42247;BME280;27913;42.722;23.268;2022-12-10T09:10:28;94177.72;;;10.14;100.00
42247;BME280;27913;42.722;23.268;2022-12-10T09:12:54;94165.22;;;10.09;100.00
42247;BME280;27913;42.722;23.268;2022-12-10T09:15:19;94084.88;;;9.54;100.00
42247;BME280;27913;42.722;23.268;2022-12-10T09:17:45;94058.22;;;9.43;100.00
42247;BME280;27913;42.722;23.268;2022-12-10T09:20:10;94116.94;;;9.90;100.00
42247;BME280;27913;42.722;23.268;2022-12-10T09:22:36;94199.13;;;10.51;100.00
42247;BME280;27913;42.722;23.268;2022-12-10T09:25:03;94192.63;;;10.61;100.00
42247;BME280;27913;42.722;23.268;2022-12-10T09:27:30;94090.06;;;10.08;100.00
42247;BME280;27913;42.722;23.268;2022-12-10T09:29:55;94161.84;;;10.75;100.00
42247;BME280;27913;42.722;23.268;2022-12-10T09:32:21;94147.03;;;10.81;100.00
42247;BME280;27913;42.722;23.268;2022-12-10T09:34:46;94005.44;;;9.86;100.00
42247;BME280;27913;42.722;23.268;2022-12-10T09:37:13;94174.06;;;11.02;100.00
42247;BME280;27913;42.722;23.268;2022-12-10T09:39:39;94152.00;;;11.03;100.00
42247;BME280;27913;42.722;23.268;2022-12-10T09:50:26;94113.34;;;11.03;100.00
42247;BME280;27913;42.722;23.268;2022-12-10T09:52:54;94143.56;;;11.26;100.00
42247;BME280;27913;42.722;23.268;2022-12-10T09:55:31;94047.34;;;10.72;100.00
42247;BME280;27913;42.722;23.268;2022-12-10T09:57:59;94138.88;;;11.35;100.00
42247;BME280;27913;42.722;23.268;2022-12-10T10:00:38;94135.97;;;11.43;100.00
42247;BME280;27913;42.722;23.268;2022-12-10T10:03:04;93995.03;;;10.64;100.00
42247;BME280;27913;42.722;23.268;2022-12-10T10:05:38;94142.16;;;11.56;100.00
42247;BME280;27913;42.722;23.268;2022-12-10T10:08:13;94045.78;;;10.97;100.00
42247;BME280;27913;42.722;23.268;2022-12-10T10:10:40;94089.41;;;11.37;100.00
42247;BME280;27913;42.722;23.268;2022-12-10T10:15:35;94037.28;;;11.27;100.00
42247;BME280;27913;42.722;23.268;2022-12-10T10:18:09;94097.16;;;11.83;100.00
42247;BME280;27913;42.722;23.268;2022-12-10T10:20:36;94114.97;;;12.06;100.00
42247;BME280;27913;42.722;23.268;2022-12-10T10:23:01;94107.84;;;12.14;100.00
42247;BME280;27913;42.722;23.268;2022-12-10T10:25:27;94067.69;;;11.93;100.00
42247;BME280;27913;42.722;23.268;2022-12-10T10:27:54;94017.91;;;11.66;100.00
42247;BME280;27913;42.722;23.268;2022-12-10T10:30:22;94091.72;;;12.22;100.00
42247;BME280;27913;42.722;23.268;2022-12-10T10:32:54;93982.06;;;11.65;100.00
42247;BME280;27913;42.722;23.268;2022-12-10T10:35:26;94034.31;;;11.87;100.00
42247;BME280;27913;42.722;23.268;2022-12-10T10:37:58;94084.63;;;12.23;100.00
42247;BME280;27913;42.722;23.268;2022-12-10T10:40:30;94003.94;;;11.84;100.00
42247;BME280;27913;42.722;23.268;2022-12-10T10:42:58;93973.34;;;11.64;99.00
42247;BME280;27913;42.722;23.268;2022-12-10T10:45:37;94070.72;;;12.34;99.64
42247;BME280;27913;42.722;23.268;2022-12-10T10:48:19;94077.44;;;12.30;100.00
42247;BME280;27913;42.722;23.268;2022-12-10T10:50:48;94016.38;;;11.95;100.00
42247;BME280;27913;42.722;23.268;2022-12-10T10:53:40;94065.81;;;12.38;99.70
42247;BME280;27913;42.722;23.268;2022-12-10T10:56:13;94028.41;;;12.10;99.72
42247;BME280;27913;42.722;23.268;2022-12-10T10:59:02;94073.84;;;12.43;99.77
42247;BME280;27913;42.722;23.268;2022-12-10T11:01:52;94007.94;;;12.05;99.10
42247;BME280;27913;42.722;23.268;2022-12-10T11:04:23;94070.50;;;12.54;98.95
42247;BME280;27913;42.722;23.268;2022-12-10T11:06:54;93950.31;;;11.78;98.08
42247;BME280;27913;42.722;23.268;2022-12-10T11:09:21;94042.81;;;12.45;97.27
42247;BME280;27913;42.722;23.268;2022-12-10T11:11:51;93908.91;;;11.48;98.54
42247;BME280;27913;42.722;23.268;2022-12-10T11:14:29;94041.84;;;12.39;99.18
42247;BME280;27913;42.722;23.268;2022-12-10T11:17:27;94004.66;;;12.29;98.41
42247;BME280;27913;42.722;23.268;2022-12-10T11:19:59;94014.81;;;12.44;97.80
42247;BME280;27913;42.722;23.268;2022-12-10T11:22:30;93824.75;;;11.22;97.69
42247;BME280;27913;42.722;23.268;2022-12-10T11:24:57;94007.47;;;12.46;97.35
42247;BME280;27913;42.722;23.268;2022-12-10T11:27:49;93893.03;;;11.74;97.50
42247;BME280;27913;42.722;23.268;2022-12-10T11:30:22;94006.91;;;12.44;97.45
42247;BME280;27913;42.722;23.268;2022-12-10T11:35:54;93933.81;;;12.02;97.02
42247;BME280;27913;42.722;23.268;2022-12-10T11:38:31;93914.16;;;11.86;96.96
42247;BME280;27913;42.722;23.268;2022-12-10T11:41:22;94004.34;;;12.37;96.74
42247;BME280;27913;42.722;23.268;2022-12-10T11:54:19;93986.25;;;12.41;97.98
42247;BME280;27913;42.722;23.268;2022-12-10T11:56:54;93836.78;;;11.49;98.55
42247;BME280;27913;42.722;23.268;2022-12-10T12:07:41;93907.97;;;12.11;98.42
42247;BME280;27913;42.722;23.268;2022-12-10T12:18:11;93950.66;;;12.50;99.16
42247;BME280;27913;42.722;23.268;2022-12-10T12:20:49;93914.59;;;12.32;99.36
42247;BME280;27913;42.722;23.268;2022-12-10T12:23:31;93949.72;;;12.56;99.54
42247;BME280;27913;42.722;23.268;2022-12-10T12:26:03;93894.31;;;12.32;98.52
42247;BME280;27913;42.722;23.268;2022-12-10T12:28:38;93910.84;;;12.40;98.96
42247;BME280;27913;42.722;23.268;2022-12-10T12:31:14;93846.59;;;12.10;97.72
42247;BME280;27913;42.722;23.268;2022-12-10T12:33:49;93788.59;;;11.79;98.60
42247;BME280;27913;42.722;23.268;2022-12-10T12:36:19;93838.81;;;12.27;99.10
42247;BME280;27913;42.722;23.268;2022-12-10T12:38:52;93854.31;;;12.36;98.30
42247;BME280;27913;42.722;23.268;2022-12-10T12:44:28;93865.69;;;12.48;97.62
42247;BME280;27913;42.722;23.268;2022-12-10T12:46:58;93894.84;;;12.65;97.75
42247;BME280;27913;42.722;23.268;2022-12-10T12:49:35;93891.53;;;12.70;98.18
42247;BME280;27913;42.722;23.268;2022-12-10T12:54:44;93845.81;;;12.34;98.54
42247;BME280;27913;42.722;23.268;2022-12-10T12:57:30;93891.53;;;12.70;98.32
42247;BME280;27913;42.722;23.268;2022-12-10T13:00:05;93824.25;;;12.25;98.27
42247;BME280;27913;42.722;23.268;2022-12-10T13:13:38;93881.06;;;12.63;97.92
42247;BME280;27913;42.722;23.268;2022-12-10T13:22:10;93867.88;;;12.63;98.03
42247;BME280;27913;42.722;23.268;2022-12-10T13:30:00;93729.19;;;11.83;97.75
42247;BME280;27913;42.722;23.268;2022-12-10T13:35:18;93850.34;;;12.69;98.10
42247;BME280;27913;42.722;23.268;2022-12-10T13:46:26;93827.06;;;12.54;96.95
42247;BME280;27913;42.722;23.268;2022-12-10T13:48:57;93694.00;;;11.66;96.76
42247;BME280;27913;42.722;23.268;2022-12-10T14:01:40;93844.34;;;12.50;98.04
42247;BME280;27913;42.722;23.268;2022-12-10T14:06:38;93721.97;;;11.79;96.56
42247;BME280;27913;42.722;23.268;2022-12-10T14:09:23;93756.03;;;12.04;96.01
42247;BME280;27913;42.722;23.268;2022-12-10T14:12:14;93756.19;;;12.10;94.96
42247;BME280;27913;42.722;23.268;2022-12-10T14:14:43;93769.47;;;12.15;94.87
42247;BME280;27913;42.722;23.268;2022-12-10T14:17:24;93752.84;;;12.14;94.28
42247;BME280;27913;42.722;23.268;2022-12-10T14:19:55;93820.75;;;12.55;94.63
42247;BME280;27913;42.722;23.268;2022-12-10T14:22:43;93702.25;;;11.81;94.69
42247;BME280;27913;42.722;23.268;2022-12-10T14:25:16;93795.88;;;12.51;95.51
42247;BME280;27913;42.722;23.268;2022-12-10T14:27:44;93810.91;;;12.50;96.04
42247;BME280;27913;42.722;23.268;2022-12-10T14:30:18;93685.19;;;11.72;96.01
42247;BME280;27913;42.722;23.268;2022-12-10T14:32:45;93811.47;;;12.52;95.88
42247;BME280;27913;42.722;23.268;2022-12-10T14:35:18;93789.44;;;12.47;95.54
42247;BME280;27913;42.722;23.268;2022-12-10T14:37:47;93809.06;;;12.51;95.54
42247;BME280;27913;42.722;23.268;2022-12-10T14:40:23;93776.28;;;12.47;95.89
42247;BME280;27913;42.722;23.268;2022-12-10T14:42:54;93768.34;;;12.35;97.60
42247;BME280;27913;42.722;23.268;2022-12-10T14:45:20;93709.13;;;11.82;97.49
42247;BME280;27913;42.722;23.268;2022-12-10T14:47:47;93709.81;;;11.78;97.10
42247;BME280;27913;42.722;23.268;2022-12-10T14:50:14;93787.59;;;12.23;96.39
42247;BME280;27913;42.722;23.268;2022-12-10T14:52:43;93722.56;;;11.93;96.72
42247;BME280;27913;42.722;23.268;2022-12-10T14:55:14;93758.53;;;11.99;97.04
42247;BME280;27913;42.722;23.268;2022-12-10T14:57:42;93727.25;;;11.79;97.12
42247;BME280;27913;42.722;23.268;2022-12-10T15:00:21;93812.00;;;12.18;97.52